There are multiple Weather-warnings   Click here for more information


Meteo18 Weather Cam more information Meteo18 Weather Cam


Thunder radar more information blitzortung!


warning for Snow/Ice more information rain snow radar


Visit our other weather sites:

Template documentation
and downloads

And another site



Weather Underground History page Text

Daily Summary for December 9, 2017 Units:  Both    English   Metric
« Previous Day
Next Day »
Daily Weekly Monthly Yearly Custom
  High: Low: Average:
Temperature: TemperatureC °F /  -17.8 °C -0.6 °F /  -18.1 °C 0.5 °F /  -17.5 °C
Dew Point: DewpointC °F /  -17.8 °C -1.7 °F /  -18.7 °C -0.6 °F /  -18.1 °C
Humidity: Humidity % 90 % 91 %
Wind Speed: WindSpeedKMH mph /  0 km/h - 3.9 mph /  6.3 km/h
Wind Gust: WindSpeedGustKMH mph /  0 km/h - -
Wind:- - WSW
Pressure: PressurehPa in /  0 hPa 1013.4 in /  34313.7 hPa -
Precipitation: 0.3 in /  7.62 mm    
Historical Graphs
 
 
Tabular Data for December 9, 2017
Time Temperature Dew Point Pressure Wind Wind Speed Wind Gust Humidity Rainfall Rate (Hourly)
TemperatureC °F /  -17.8 °C DewpointC °F /  -17.8 °C PressurehPa in /  0 hPa Calm     Humidity % HourlyPrecipMM in /  0 mm
00:02 0.9 °F /  -17.3 °C -0.4 °F /  -18 °C 1021.9 in /  34601.5 hPa WNW 11.3 mph /  18.2 km/h 20.9 mph /  33.6 km/h 91 % 0.0 in /  0 mm
00:07 0.9 °F /  -17.3 °C -0.4 °F /  -18 °C 1021.9 in /  34601.5 hPa West 3.2 mph /  5.1 km/h 20.9 mph /  33.6 km/h 91 % 0.0 in /  0 mm
00:12 0.8 °F /  -17.3 °C -0.5 °F /  -18.1 °C 1021.9 in /  34601.5 hPa NW 8.0 mph /  12.9 km/h 20.9 mph /  33.6 km/h 91 % 0.0 in /  0 mm
00:17 0.8 °F /  -17.3 °C -0.5 °F /  -18.1 °C 1021.9 in /  34601.5 hPa WNW 8.0 mph /  12.9 km/h 20.9 mph /  33.6 km/h 91 % 0.0 in /  0 mm
00:22 0.8 °F /  -17.3 °C -0.5 °F /  -18.1 °C 1021.9 in /  34601.5 hPa NW 6.4 mph /  10.3 km/h 20.9 mph /  33.6 km/h 91 % 0.0 in /  0 mm
00:32 0.7 °F /  -17.4 °C -0.6 °F /  -18.1 °C 1021.9 in /  34601.5 hPa NW 11.3 mph /  18.2 km/h 22.5 mph /  36.2 km/h 91 % 0.0 in /  0 mm
00:42 0.6 °F /  -17.4 °C -0.7 °F /  -18.2 °C 1021.6 in /  34591.4 hPa NW 4.8 mph /  7.7 km/h 19.3 mph /  31.1 km/h 91 % 0.0 in /  0 mm
00:47 0.6 °F /  -17.4 °C -0.7 °F /  -18.2 °C 1021.6 in /  34591.4 hPa SSE 9.7 mph /  15.6 km/h 20.9 mph /  33.6 km/h 91 % 0.0 in /  0 mm
00:52 0.6 °F /  -17.4 °C -0.7 °F /  -18.2 °C 1021.6 in /  34591.4 hPa West 6.4 mph /  10.3 km/h 20.9 mph /  33.6 km/h 91 % 0.0 in /  0 mm
00:57 0.5 °F /  -17.5 °C -0.8 °F /  -18.2 °C 1021.6 in /  34591.4 hPa West 11.3 mph /  18.2 km/h 19.3 mph /  31.1 km/h 91 % 0.0 in /  0 mm
01:02 0.5 °F /  -17.5 °C -0.9 °F /  -18.3 °C 1021.6 in /  34591.4 hPa NW 4.8 mph /  7.7 km/h 19.3 mph /  31.1 km/h 90 % 0.0 in /  0 mm
01:12 0.4 °F /  -17.6 °C -0.9 °F /  -18.3 °C 1021.6 in /  34591.4 hPa WSW 9.7 mph /  15.6 km/h 19.3 mph /  31.1 km/h 91 % 0.0 in /  0 mm
01:17 0.4 °F /  -17.6 °C -0.9 °F /  -18.3 °C 1021.6 in /  34591.4 hPa West 9.7 mph /  15.6 km/h 20.9 mph /  33.6 km/h 91 % 0.0 in /  0 mm
01:22 0.3 °F /  -17.6 °C -1.0 °F /  -18.3 °C 1021.6 in /  34591.4 hPa NW 8.0 mph /  12.9 km/h 22.5 mph /  36.2 km/h 91 % 0.0 in /  0 mm
01:37 0.3 °F /  -17.6 °C -1.1 °F /  -18.4 °C 1021.6 in /  34591.4 hPa WNW 16.1 mph /  25.9 km/h 22.5 mph /  36.2 km/h 90 % 0.0 in /  0 mm
01:42 0.3 °F /  -17.6 °C -1.1 °F /  -18.4 °C 1021.6 in /  34591.4 hPa WNW 8.0 mph /  12.9 km/h 25.7 mph /  41.4 km/h 90 % 0.0 in /  0 mm
01:52 0.3 °F /  -17.6 °C -1.1 °F /  -18.4 °C 1021.6 in /  34591.4 hPa NW 9.7 mph /  15.6 km/h 17.7 mph /  28.5 km/h 90 % 0.0 in /  0 mm
02:02 0.2 °F /  -17.7 °C -1.2 °F /  -18.4 °C 1021.6 in /  34591.4 hPa WNW 3.2 mph /  5.1 km/h 17.7 mph /  28.5 km/h 90 % 0.0 in /  0 mm
02:12 0.1 °F /  -17.7 °C -1.2 °F /  -18.4 °C 1021.6 in /  34591.4 hPa WNW 3.2 mph /  5.1 km/h 17.7 mph /  28.5 km/h 91 % 0.0 in /  0 mm
02:17 0.1 °F /  -17.7 °C -1.2 °F /  -18.4 °C 1021.6 in /  34591.4 hPa WNW 4.8 mph /  7.7 km/h 14.5 mph /  23.3 km/h 91 % 0.0 in /  0 mm
02:27 0.1 °F /  -17.7 °C -1.2 °F /  -18.4 °C 1021.6 in /  34591.4 hPa NNW 3.2 mph /  5.1 km/h 16.1 mph /  25.9 km/h 91 % 0.0 in /  0 mm
02:32 0.1 °F /  -17.7 °C -1.2 °F /  -18.4 °C 1021.6 in /  34591.4 hPa West 4.8 mph /  7.7 km/h 16.1 mph /  25.9 km/h 91 % 0.0 in /  0 mm
02:37 0.1 °F /  -17.7 °C -1.2 °F /  -18.4 °C 1021.6 in /  34591.4 hPa WNW 1.6 mph /  2.6 km/h 16.1 mph /  25.9 km/h 91 % 0.0 in /  0 mm
02:42 0.1 °F /  -17.7 °C -1.2 °F /  -18.4 °C 1021.6 in /  34591.4 hPa WNW 11.3 mph /  18.2 km/h 17.7 mph /  28.5 km/h 91 % 0.0 in /  0 mm
02:52 0.1 °F /  -17.7 °C -1.2 °F /  -18.4 °C 1021.9 in /  34601.5 hPa WNW 9.7 mph /  15.6 km/h 20.9 mph /  33.6 km/h 91 % 0.0 in /  0 mm
02:57 0.1 °F /  -17.7 °C -1.2 °F /  -18.4 °C 1021.9 in /  34601.5 hPa WNW 8.0 mph /  12.9 km/h 20.9 mph /  33.6 km/h 91 % 0.0 in /  0 mm
03:07 0.1 °F /  -17.7 °C -1.3 °F /  -18.5 °C 1021.9 in /  34601.5 hPa NW 3.2 mph /  5.1 km/h 19.3 mph /  31.1 km/h 90 % 0.0 in /  0 mm
03:12 0.0 °F /  -17.8 °C -1.4 °F /  -18.6 °C 1021.9 in /  34601.5 hPa WNW 1.6 mph /  2.6 km/h 19.3 mph /  31.1 km/h 90 % 0.0 in /  0 mm
03:17 0.0 °F /  -17.8 °C -1.3 °F /  -18.5 °C 1021.9 in /  34601.5 hPa WNW 8.0 mph /  12.9 km/h 16.1 mph /  25.9 km/h 91 % 0.0 in /  0 mm
03:22 -0.1 °F /  -17.8 °C -1.4 °F /  -18.6 °C 1021.9 in /  34601.5 hPa NW 4.8 mph /  7.7 km/h 14.5 mph /  23.3 km/h 91 % 0.0 in /  0 mm
03:32 0.0 °F /  -17.8 °C -1.3 °F /  -18.5 °C 1021.9 in /  34601.5 hPa WNW 9.7 mph /  15.6 km/h 12.9 mph /  20.8 km/h 91 % 0.0 in /  0 mm
03:37 0.0 °F /  -17.8 °C -1.3 °F /  -18.5 °C 1021.9 in /  34601.5 hPa West 4.8 mph /  7.7 km/h 14.5 mph /  23.3 km/h 91 % 0.0 in /  0 mm
03:42 -0.1 °F /  -17.8 °C -1.4 °F /  -18.6 °C 1021.9 in /  34601.5 hPa WSW 1.6 mph /  2.6 km/h 14.5 mph /  23.3 km/h 91 % 0.0 in /  0 mm
03:47 -0.1 °F /  -17.8 °C -1.4 °F /  -18.6 °C 1021.9 in /  34601.5 hPa NW 1.6 mph /  2.6 km/h 14.5 mph /  23.3 km/h 91 % 0.0 in /  0 mm
03:57 -0.1 °F /  -17.8 °C -1.4 °F /  -18.6 °C 1021.9 in /  34601.5 hPa Calm   9.7 mph /  15.6 km/h 91 % 0.0 in /  0 mm
04:02 -0.1 °F /  -17.8 °C -1.4 °F /  -18.6 °C 1022.2 in /  34611.7 hPa Calm   9.7 mph /  15.6 km/h 91 % 0.0 in /  0 mm
04:12 -0.1 °F /  -17.8 °C -1.4 °F /  -18.6 °C 1022.2 in /  34611.7 hPa West 4.8 mph /  7.7 km/h 6.4 mph /  10.3 km/h 91 % 0.0 in /  0 mm
04:22 -0.1 °F /  -17.8 °C -1.4 °F /  -18.6 °C 1021.9 in /  34601.5 hPa West 1.6 mph /  2.6 km/h 9.7 mph /  15.6 km/h 91 % 0.0 in /  0 mm
04:32 -0.1 °F /  -17.8 °C -1.4 °F /  -18.6 °C 1021.9 in /  34601.5 hPa WNW 8.0 mph /  12.9 km/h 9.7 mph /  15.6 km/h 91 % 0.0 in /  0 mm
04:37 0.0 °F /  -17.8 °C -1.3 °F /  -18.5 °C 1021.9 in /  34601.5 hPa West 3.2 mph /  5.1 km/h 9.7 mph /  15.6 km/h 91 % 0.0 in /  0 mm
04:42 0.0 °F /  -17.8 °C -1.3 °F /  -18.5 °C 1021.9 in /  34601.5 hPa WNW 4.8 mph /  7.7 km/h 11.3 mph /  18.2 km/h 91 % 0.0 in /  0 mm
04:47 0.1 °F /  -17.7 °C -1.2 °F /  -18.4 °C 1021.9 in /  34601.5 hPa WNW 6.4 mph /  10.3 km/h 11.3 mph /  18.2 km/h 91 % 0.0 in /  0 mm
04:52 0.1 °F /  -17.7 °C -1.2 °F /  -18.4 °C 1021.9 in /  34601.5 hPa West 6.4 mph /  10.3 km/h 11.3 mph /  18.2 km/h 91 % 0.0 in /  0 mm
05:02 0.1 °F /  -17.7 °C -1.2 °F /  -18.4 °C 1021.9 in /  34601.5 hPa WNW 1.6 mph /  2.6 km/h 16.1 mph /  25.9 km/h 91 % 0.0 in /  0 mm
05:17 0.1 °F /  -17.7 °C -1.2 °F /  -18.4 °C 1021.9 in /  34601.5 hPa WNW 9.7 mph /  15.6 km/h 16.1 mph /  25.9 km/h 91 % 0.0 in /  0 mm
05:22 0.1 °F /  -17.7 °C -1.2 °F /  -18.4 °C 1021.6 in /  34591.4 hPa WNW 4.8 mph /  7.7 km/h 16.1 mph /  25.9 km/h 91 % 0.0 in /  0 mm
05:27 0.1 °F /  -17.7 °C -1.2 °F /  -18.4 °C 1021.6 in /  34591.4 hPa WNW 4.8 mph /  7.7 km/h 14.5 mph /  23.3 km/h 91 % 0.0 in /  0 mm
05:32 0.1 °F /  -17.7 °C -1.2 °F /  -18.4 °C 1021.9 in /  34601.5 hPa WNW 3.2 mph /  5.1 km/h 14.5 mph /  23.3 km/h 91 % 0.0 in /  0 mm
05:37 0.1 °F /  -17.7 °C -1.2 °F /  -18.4 °C 1021.9 in /  34601.5 hPa WNW 4.8 mph /  7.7 km/h 12.9 mph /  20.8 km/h 91 % 0.0 in /  0 mm
05:52 0.1 °F /  -17.7 °C -1.2 °F /  -18.4 °C 1021.9 in /  34601.5 hPa West 3.2 mph /  5.1 km/h 11.3 mph /  18.2 km/h 91 % 0.0 in /  0 mm
06:02 0.0 °F /  -17.8 °C -1.1 °F /  -18.4 °C 1021.9 in /  34601.5 hPa West 3.2 mph /  5.1 km/h 11.3 mph /  18.2 km/h 92 % 0.0 in /  0 mm
06:12 -0.1 °F /  -17.8 °C -1.4 °F /  -18.6 °C 1021.9 in /  34601.5 hPa Calm   9.7 mph /  15.6 km/h 91 % 0.0 in /  0 mm
06:17 0.0 °F /  -17.8 °C -1.1 °F /  -18.4 °C 1021.9 in /  34601.5 hPa WNW 6.4 mph /  10.3 km/h 9.7 mph /  15.6 km/h 92 % 0.0 in /  0 mm
06:22 0.0 °F /  -17.8 °C -1.1 °F /  -18.4 °C 1021.9 in /  34601.5 hPa WSW 9.7 mph /  15.6 km/h 9.7 mph /  15.6 km/h 92 % 0.0 in /  0 mm
06:42 0.0 °F /  -17.8 °C -1.3 °F /  -18.5 °C 1021.9 in /  34601.5 hPa Calm   12.9 mph /  20.8 km/h 91 % 0.0 in /  0 mm
07:02 0.1 °F /  -17.7 °C -1.0 °F /  -18.3 °C 1022.2 in /  34611.7 hPa West 1.6 mph /  2.6 km/h 8.0 mph /  12.9 km/h 92 % 0.0 in /  0 mm
07:07 0.1 °F /  -17.7 °C -1.0 °F /  -18.3 °C 1022.2 in /  34611.7 hPa WSW 4.8 mph /  7.7 km/h 14.5 mph /  23.3 km/h 92 % 0.0 in /  0 mm
07:12 0.1 °F /  -17.7 °C -1.0 °F /  -18.3 °C 1022.2 in /  34611.7 hPa West 3.2 mph /  5.1 km/h 14.5 mph /  23.3 km/h 92 % 0.0 in /  0 mm
07:17 0.1 °F /  -17.7 °C -1.0 °F /  -18.3 °C 1022.2 in /  34611.7 hPa WNW 6.4 mph /  10.3 km/h 12.9 mph /  20.8 km/h 92 % 0.0 in /  0 mm
07:27 0.1 °F /  -17.7 °C -1.2 °F /  -18.4 °C 1022.2 in /  34611.7 hPa NW 8.0 mph /  12.9 km/h 12.9 mph /  20.8 km/h 91 % 0.0 in /  0 mm
07:32 0.1 °F /  -17.7 °C -1.2 °F /  -18.4 °C 1022.2 in /  34611.7 hPa West 4.8 mph /  7.7 km/h 12.9 mph /  20.8 km/h 91 % 0.0 in /  0 mm
07:37 0.1 °F /  -17.7 °C -1.2 °F /  -18.4 °C 1022.2 in /  34611.7 hPa Calm   12.9 mph /  20.8 km/h 91 % 0.0 in /  0 mm
07:52 0.0 °F /  -17.8 °C -1.1 °F /  -18.4 °C 1022.2 in /  34611.7 hPa WNW 6.4 mph /  10.3 km/h 14.5 mph /  23.3 km/h 92 % 0.0 in /  0 mm
08:07 0.1 °F /  -17.7 °C -1.2 °F /  -18.4 °C 1022.2 in /  34611.7 hPa West 12.9 mph /  20.8 km/h 20.9 mph /  33.6 km/h 91 % 0.0 in /  0 mm
08:12 0.1 °F /  -17.7 °C -1.2 °F /  -18.4 °C 1022.2 in /  34611.7 hPa West 4.8 mph /  7.7 km/h 20.9 mph /  33.6 km/h 91 % 0.0 in /  0 mm
08:17 0.0 °F /  -17.8 °C -1.3 °F /  -18.5 °C 1022.2 in /  34611.7 hPa WNW 6.4 mph /  10.3 km/h 20.9 mph /  33.6 km/h 91 % 0.0 in /  0 mm
08:22 -0.1 °F /  -17.8 °C -1.4 °F /  -18.6 °C 1022.2 in /  34611.7 hPa WSW 4.8 mph /  7.7 km/h 20.9 mph /  33.6 km/h 91 % 0.0 in /  0 mm
08:32 -0.2 °F /  -17.9 °C -1.5 °F /  -18.6 °C 1022.6 in /  34625.2 hPa West 6.4 mph /  10.3 km/h 11.3 mph /  18.2 km/h 91 % 0.0 in /  0 mm
08:37 -0.3 °F /  -17.9 °C -1.6 °F /  -18.7 °C 1022.6 in /  34625.2 hPa WSW 4.8 mph /  7.7 km/h 11.3 mph /  18.2 km/h 91 % 0.0 in /  0 mm
08:42 -0.3 °F /  -17.9 °C -1.6 °F /  -18.7 °C 1022.6 in /  34625.2 hPa West 4.8 mph /  7.7 km/h 11.3 mph /  18.2 km/h 91 % 0.0 in /  0 mm
08:47 -0.4 °F /  -18 °C -1.7 °F /  -18.7 °C 1022.6 in /  34625.2 hPa West 4.8 mph /  7.7 km/h 9.7 mph /  15.6 km/h 91 % 0.0 in /  0 mm
08:52 -0.6 °F /  -18.1 °C -1.7 °F /  -18.7 °C 1022.6 in /  34625.2 hPa West 6.4 mph /  10.3 km/h 9.7 mph /  15.6 km/h 92 % 0.0 in /  0 mm
08:57 -0.4 °F /  -18 °C -1.5 °F /  -18.6 °C 1022.6 in /  34625.2 hPa West 1.6 mph /  2.6 km/h 11.3 mph /  18.2 km/h 92 % 0.0 in /  0 mm
09:02 -0.4 °F /  -18 °C -1.5 °F /  -18.6 °C 1022.6 in /  34625.2 hPa WNW 3.2 mph /  5.1 km/h 11.3 mph /  18.2 km/h 92 % 0.0 in /  0 mm
09:12 -0.2 °F /  -17.9 °C -1.3 °F /  -18.5 °C 1022.6 in /  34625.2 hPa West 6.4 mph /  10.3 km/h 19.3 mph /  31.1 km/h 92 % 0.0 in /  0 mm
09:17 -0.2 °F /  -17.9 °C -1.3 °F /  -18.5 °C 1022.6 in /  34625.2 hPa WNW 4.8 mph /  7.7 km/h 20.9 mph /  33.6 km/h 92 % 0.0 in /  0 mm
09:37 -0.1 °F /  -17.8 °C -1.2 °F /  -18.4 °C 1022.6 in /  34625.2 hPa Calm   17.7 mph /  28.5 km/h 92 % 0.0 in /  0 mm
09:42 -0.1 °F /  -17.8 °C -1.2 °F /  -18.4 °C 1022.6 in /  34625.2 hPa WNW 8.0 mph /  12.9 km/h 17.7 mph /  28.5 km/h 92 % 0.0 in /  0 mm
09:52 -0.1 °F /  -17.8 °C -1.2 °F /  -18.4 °C 1022.9 in /  34635.4 hPa NW 6.4 mph /  10.3 km/h 11.3 mph /  18.2 km/h 92 % 0.0 in /  0 mm
09:57 0.0 °F /  -17.8 °C -1.1 °F /  -18.4 °C 1022.9 in /  34635.4 hPa NW 3.2 mph /  5.1 km/h 20.9 mph /  33.6 km/h 92 % 0.0 in /  0 mm
10:02 0.0 °F /  -17.8 °C -1.1 °F /  -18.4 °C 1022.9 in /  34635.4 hPa West 6.4 mph /  10.3 km/h 20.9 mph /  33.6 km/h 92 % 0.0 in /  0 mm
10:12 0.1 °F /  -17.7 °C -1.0 °F /  -18.3 °C 1022.6 in /  34625.2 hPa NW 4.8 mph /  7.7 km/h 12.9 mph /  20.8 km/h 92 % 0.0 in /  0 mm
10:17 0.1 °F /  -17.7 °C -1.0 °F /  -18.3 °C 1022.9 in /  34635.4 hPa NW 12.9 mph /  20.8 km/h 12.9 mph /  20.8 km/h 92 % 0.0 in /  0 mm
10:27 0.1 °F /  -17.7 °C -1.0 °F /  -18.3 °C 1022.9 in /  34635.4 hPa Calm   14.5 mph /  23.3 km/h 92 % 0.0 in /  0 mm
10:32 0.1 °F /  -17.7 °C -1.2 °F /  -18.4 °C 1023.2 in /  34645.6 hPa WSW 6.4 mph /  10.3 km/h 14.5 mph /  23.3 km/h 91 % 0.0 in /  0 mm
10:37 0.2 °F /  -17.7 °C -0.9 °F /  -18.3 °C 1023.2 in /  34645.6 hPa NW 3.2 mph /  5.1 km/h 14.5 mph /  23.3 km/h 92 % 0.0 in /  0 mm
10:42 0.2 °F /  -17.7 °C -1.1 °F /  -18.4 °C 1023.2 in /  34645.6 hPa West 6.4 mph /  10.3 km/h 14.5 mph /  23.3 km/h 91 % 0.0 in /  0 mm
10:47 0.2 °F /  -17.7 °C -1.1 °F /  -18.4 °C 1022.9 in /  34635.4 hPa SW 4.8 mph /  7.7 km/h 12.9 mph /  20.8 km/h 91 % 0.0 in /  0 mm
10:52 0.3 °F /  -17.6 °C -1.0 °F /  -18.3 °C 1023.2 in /  34645.6 hPa WSW 3.2 mph /  5.1 km/h 12.9 mph /  20.8 km/h 91 % 0.0 in /  0 mm
11:07 0.3 °F /  -17.6 °C -1.0 °F /  -18.3 °C 1022.9 in /  34635.4 hPa WSW 1.6 mph /  2.6 km/h 8.0 mph /  12.9 km/h 91 % 0.0 in /  0 mm
11:12 0.3 °F /  -17.6 °C -1.0 °F /  -18.3 °C 1022.9 in /  34635.4 hPa West 9.7 mph /  15.6 km/h 9.7 mph /  15.6 km/h 91 % 0.0 in /  0 mm
11:27 0.4 °F /  -17.6 °C -0.9 °F /  -18.3 °C 1022.9 in /  34635.4 hPa Calm   11.3 mph /  18.2 km/h 91 % 0.0 in /  0 mm
11:32 0.4 °F /  -17.6 °C -0.9 °F /  -18.3 °C 1022.9 in /  34635.4 hPa Calm   11.3 mph /  18.2 km/h 91 % 0.0 in /  0 mm
11:42 0.6 °F /  -17.4 °C -0.7 °F /  -18.2 °C 1022.9 in /  34635.4 hPa SW 3.2 mph /  5.1 km/h 4.8 mph /  7.7 km/h 91 % 0.0 in /  0 mm
11:47 0.7 °F /  -17.4 °C -0.6 °F /  -18.1 °C 1022.9 in /  34635.4 hPa SW 6.4 mph /  10.3 km/h 12.9 mph /  20.8 km/h 91 % 0.0 in /  0 mm
11:52 0.9 °F /  -17.3 °C -0.4 °F /  -18 °C 1022.9 in /  34635.4 hPa West 3.2 mph /  5.1 km/h 12.9 mph /  20.8 km/h 91 % 0.0 in /  0 mm
11:57 0.9 °F /  -17.3 °C -0.6 °F /  -18.1 °C 1022.9 in /  34635.4 hPa WSW 6.4 mph /  10.3 km/h 12.9 mph /  20.8 km/h 90 % 0.0 in /  0 mm
12:02 0.8 °F /  -17.3 °C -0.7 °F /  -18.2 °C 1022.9 in /  34635.4 hPa SW 4.8 mph /  7.7 km/h 12.9 mph /  20.8 km/h 90 % 0.0 in /  0 mm
12:12 0.8 °F /  -17.3 °C -0.7 °F /  -18.2 °C 1022.6 in /  34625.2 hPa WSW 6.4 mph /  10.3 km/h 11.3 mph /  18.2 km/h 90 % 0.3 in /  7.62 mm
12:17 0.8 °F /  -17.3 °C -0.7 °F /  -18.2 °C 1022.6 in /  34625.2 hPa SW 6.4 mph /  10.3 km/h 9.7 mph /  15.6 km/h 90 % 0.3 in /  7.62 mm
12:27 0.8 °F /  -17.3 °C -0.7 °F /  -18.2 °C 1022.6 in /  34625.2 hPa WSW 3.2 mph /  5.1 km/h 12.9 mph /  20.8 km/h 90 % 0.3 in /  7.62 mm
12:32 0.7 °F /  -17.4 °C -0.8 °F /  -18.2 °C 1022.6 in /  34625.2 hPa WSW 8.0 mph /  12.9 km/h 12.9 mph /  20.8 km/h 90 % 0.3 in /  7.62 mm
12:37 0.6 °F /  -17.4 °C -0.7 °F /  -18.2 °C 1022.6 in /  34625.2 hPa SW 9.7 mph /  15.6 km/h 12.9 mph /  20.8 km/h 91 % 0.3 in /  7.62 mm
12:42 0.6 °F /  -17.4 °C -0.7 °F /  -18.2 °C 1022.6 in /  34625.2 hPa SW 4.8 mph /  7.7 km/h 12.9 mph /  20.8 km/h 91 % 0.3 in /  7.62 mm
12:52 0.6 °F /  -17.4 °C -0.5 °F /  -18.1 °C 1022.6 in /  34625.2 hPa SW 8.0 mph /  12.9 km/h 12.9 mph /  20.8 km/h 92 % 0.3 in /  7.62 mm
12:57 0.6 °F /  -17.4 °C -0.7 °F /  -18.2 °C 1022.6 in /  34625.2 hPa SSW 4.8 mph /  7.7 km/h 9.7 mph /  15.6 km/h 91 % 0.3 in /  7.62 mm
13:02 0.6 °F /  -17.4 °C -0.5 °F /  -18.1 °C 1022.2 in /  34611.7 hPa SSE 9.7 mph /  15.6 km/h 9.7 mph /  15.6 km/h 92 % 0.3 in /  7.62 mm
13:07 0.5 °F /  -17.5 °C -0.6 °F /  -18.1 °C 1022.2 in /  34611.7 hPa SW 4.8 mph /  7.7 km/h 11.3 mph /  18.2 km/h 92 % 0.0 in /  0 mm
13:17 0.4 °F /  -17.6 °C -0.7 °F /  -18.2 °C 1022.2 in /  34611.7 hPa SSW 6.4 mph /  10.3 km/h 11.3 mph /  18.2 km/h 92 % 0.0 in /  0 mm
13:22 0.5 °F /  -17.5 °C -0.6 °F /  -18.1 °C 1022.2 in /  34611.7 hPa SW 11.3 mph /  18.2 km/h 11.3 mph /  18.2 km/h 92 % 0.0 in /  0 mm
13:32 0.4 °F /  -17.6 °C -0.7 °F /  -18.2 °C 1022.2 in /  34611.7 hPa SW 4.8 mph /  7.7 km/h 12.9 mph /  20.8 km/h 92 % 0.0 in /  0 mm
13:42 0.4 °F /  -17.6 °C -0.7 °F /  -18.2 °C 1022.2 in /  34611.7 hPa SSW 8.0 mph /  12.9 km/h 12.9 mph /  20.8 km/h 92 % 0.0 in /  0 mm
13:47 0.6 °F /  -17.4 °C -0.5 °F /  -18.1 °C 1021.9 in /  34601.5 hPa SW 9.7 mph /  15.6 km/h 14.5 mph /  23.3 km/h 92 % 0.0 in /  0 mm
13:52 0.6 °F /  -17.4 °C -0.5 °F /  -18.1 °C 1022.2 in /  34611.7 hPa SW 4.8 mph /  7.7 km/h 14.5 mph /  23.3 km/h 92 % 0.0 in /  0 mm
13:57 0.7 °F /  -17.4 °C -0.5 °F /  -18.1 °C 1021.9 in /  34601.5 hPa South 6.4 mph /  10.3 km/h 14.5 mph /  23.3 km/h 92 % 0.0 in /  0 mm
14:02 0.7 °F /  -17.4 °C -0.6 °F /  -18.1 °C 1021.9 in /  34601.5 hPa WSW 4.8 mph /  7.7 km/h 14.5 mph /  23.3 km/h 91 % 0.0 in /  0 mm
14:17 0.8 °F /  -17.3 °C -0.5 °F /  -18.1 °C 1021.9 in /  34601.5 hPa SW 6.4 mph /  10.3 km/h 14.5 mph /  23.3 km/h 91 % 0.0 in /  0 mm
14:22 0.8 °F /  -17.3 °C -0.5 °F /  -18.1 °C 1021.6 in /  34591.4 hPa SSW 6.4 mph /  10.3 km/h 11.3 mph /  18.2 km/h 91 % 0.0 in /  0 mm
14:27 0.8 °F /  -17.3 °C -0.5 °F /  -18.1 °C 1021.6 in /  34591.4 hPa SW 4.8 mph /  7.7 km/h 11.3 mph /  18.2 km/h 91 % 0.0 in /  0 mm
14:32 0.9 °F /  -17.3 °C -0.4 °F /  -18 °C 1021.6 in /  34591.4 hPa SW 6.4 mph /  10.3 km/h 11.3 mph /  18.2 km/h 91 % 0.0 in /  0 mm
14:42 0.9 °F /  -17.3 °C -0.4 °F /  -18 °C 1021.2 in /  34577.8 hPa SSW 8.0 mph /  12.9 km/h 11.3 mph /  18.2 km/h 91 % 0.0 in /  0 mm
14:52 1.1 °F /  -17.2 °C -0.2 °F /  -17.9 °C 1020.9 in /  34567.7 hPa SSW 3.2 mph /  5.1 km/h 8.0 mph /  12.9 km/h 91 % 0.0 in /  0 mm
14:57 1.1 °F /  -17.2 °C -0.2 °F /  -17.9 °C 1020.9 in /  34567.7 hPa SW 4.8 mph /  7.7 km/h 8.0 mph /  12.9 km/h 91 % 0.0 in /  0 mm
15:02 1.1 °F /  -17.2 °C -0.2 °F /  -17.9 °C 1020.9 in /  34567.7 hPa SW 6.4 mph /  10.3 km/h 11.3 mph /  18.2 km/h 91 % 0.0 in /  0 mm
15:07 1.2 °F /  -17.1 °C -0.1 °F /  -17.8 °C 1020.5 in /  34554.1 hPa SSW 3.2 mph /  5.1 km/h 11.3 mph /  18.2 km/h 91 % 0.0 in /  0 mm
15:12 1.2 °F /  -17.1 °C 0.0 °F /  -17.8 °C 1020.5 in /  34554.1 hPa SSW 3.2 mph /  5.1 km/h 11.3 mph /  18.2 km/h 92 % 0.0 in /  0 mm
15:27 1.5 °F /  -16.9 °C 0.2 °F /  -17.7 °C 1020.2 in /  34544 hPa SSE 3.2 mph /  5.1 km/h 12.9 mph /  20.8 km/h 91 % 0.0 in /  0 mm
15:32 1.4 °F /  -17 °C 0.1 °F /  -17.7 °C 1020.2 in /  34544 hPa SSE 1.6 mph /  2.6 km/h 8.0 mph /  12.9 km/h 91 % 0.0 in /  0 mm
15:37 1.4 °F /  -17 °C 0.1 °F /  -17.7 °C 1020.2 in /  34544 hPa South 3.2 mph /  5.1 km/h 8.0 mph /  12.9 km/h 91 % 0.0 in /  0 mm
15:42 1.4 °F /  -17 °C 0.1 °F /  -17.7 °C 1020.2 in /  34544 hPa South 1.6 mph /  2.6 km/h 8.0 mph /  12.9 km/h 91 % 0.0 in /  0 mm
15:47 1.4 °F /  -17 °C 0.1 °F /  -17.7 °C 1020.2 in /  34544 hPa SW 4.8 mph /  7.7 km/h 8.0 mph /  12.9 km/h 91 % 0.0 in /  0 mm
15:52 1.4 °F /  -17 °C 0.1 °F /  -17.7 °C 1020.2 in /  34544 hPa SSW 1.6 mph /  2.6 km/h 8.0 mph /  12.9 km/h 91 % 0.0 in /  0 mm
15:57 1.4 °F /  -17 °C 0.1 °F /  -17.7 °C 1020.2 in /  34544 hPa SSW 4.8 mph /  7.7 km/h 6.4 mph /  10.3 km/h 91 % 0.0 in /  0 mm
16:02 1.4 °F /  -17 °C 0.1 °F /  -17.7 °C 1020.2 in /  34544 hPa Calm   6.4 mph /  10.3 km/h 91 % 0.0 in /  0 mm
16:07 1.4 °F /  -17 °C 0.1 °F /  -17.7 °C 1020.2 in /  34544 hPa South 1.6 mph /  2.6 km/h 6.4 mph /  10.3 km/h 91 % 0.0 in /  0 mm
16:12 1.4 °F /  -17 °C 0.1 °F /  -17.7 °C 1020.2 in /  34544 hPa SSE 1.6 mph /  2.6 km/h 6.4 mph /  10.3 km/h 91 % 0.0 in /  0 mm
16:22 1.4 °F /  -17 °C 0.1 °F /  -17.7 °C 1019.9 in /  34533.8 hPa SW 3.2 mph /  5.1 km/h 4.8 mph /  7.7 km/h 91 % 0.0 in /  0 mm
16:27 1.3 °F /  -17.1 °C 0.0 °F /  -17.8 °C 1019.9 in /  34533.8 hPa SSE 1.6 mph /  2.6 km/h 4.8 mph /  7.7 km/h 91 % 0.0 in /  0 mm
16:32 1.3 °F /  -17.1 °C 0.0 °F /  -17.8 °C 1019.9 in /  34533.8 hPa Calm   4.8 mph /  7.7 km/h 91 % 0.0 in /  0 mm
16:42 1.3 °F /  -17.1 °C 0.1 °F /  -17.7 °C 1019.9 in /  34533.8 hPa SE 3.2 mph /  5.1 km/h 4.8 mph /  7.7 km/h 92 % 0.0 in /  0 mm
16:47 1.3 °F /  -17.1 °C 0.1 °F /  -17.7 °C 1019.9 in /  34533.8 hPa ESE 3.2 mph /  5.1 km/h 4.8 mph /  7.7 km/h 92 % 0.0 in /  0 mm
16:52 1.3 °F /  -17.1 °C 0.1 °F /  -17.7 °C 1019.5 in /  34520.3 hPa ESE 1.6 mph /  2.6 km/h 6.4 mph /  10.3 km/h 92 % 0.0 in /  0 mm
16:57 1.3 °F /  -17.1 °C 0.1 °F /  -17.7 °C 1019.5 in /  34520.3 hPa Calm   6.4 mph /  10.3 km/h 92 % 0.0 in /  0 mm
17:02 1.3 °F /  -17.1 °C 0.1 °F /  -17.7 °C 1019.5 in /  34520.3 hPa ESE 1.6 mph /  2.6 km/h 6.4 mph /  10.3 km/h 92 % 0.0 in /  0 mm
17:12 1.2 °F /  -17.1 °C 0.0 °F /  -17.8 °C 1019.2 in /  34510.1 hPa Calm   4.8 mph /  7.7 km/h 92 % 0.0 in /  0 mm
17:17 1.2 °F /  -17.1 °C 0.0 °F /  -17.8 °C 1019.2 in /  34510.1 hPa Calm   6.4 mph /  10.3 km/h 92 % 0.0 in /  0 mm
17:22 1.2 °F /  -17.1 °C 0.0 °F /  -17.8 °C 1019.2 in /  34510.1 hPa Calm   6.4 mph /  10.3 km/h 92 % 0.0 in /  0 mm
17:27 1.1 °F /  -17.2 °C -0.1 °F /  -17.8 °C 1019.2 in /  34510.1 hPa Calm   4.8 mph /  7.7 km/h 92 % 0.0 in /  0 mm
17:32 1.1 °F /  -17.2 °C -0.1 °F /  -17.8 °C 1019.2 in /  34510.1 hPa Calm   4.8 mph /  7.7 km/h 92 % 0.0 in /  0 mm
17:42 0.9 °F /  -17.3 °C -0.1 °F /  -17.8 °C 1018.8 in /  34496.6 hPa Calm   3.2 mph /  5.1 km/h 93 % 0.0 in /  0 mm
17:47 0.9 °F /  -17.3 °C -0.1 °F /  -17.8 °C 1018.8 in /  34496.6 hPa SE 1.6 mph /  2.6 km/h 3.2 mph /  5.1 km/h 93 % 0.0 in /  0 mm
17:52 0.9 °F /  -17.3 °C -0.1 °F /  -17.8 °C 1018.8 in /  34496.6 hPa Calm   3.2 mph /  5.1 km/h 93 % 0.0 in /  0 mm
18:02 0.8 °F /  -17.3 °C -0.2 °F /  -17.9 °C 1018.8 in /  34496.6 hPa Calm   4.8 mph /  7.7 km/h 93 % 0.0 in /  0 mm
18:07 0.8 °F /  -17.3 °C -0.2 °F /  -17.9 °C 1018.8 in /  34496.6 hPa SE 1.6 mph /  2.6 km/h 4.8 mph /  7.7 km/h 93 % 0.0 in /  0 mm
18:17 0.8 °F /  -17.3 °C -0.2 °F /  -17.9 °C 1018.5 in /  34486.4 hPa Calm   4.8 mph /  7.7 km/h 93 % 0.0 in /  0 mm
18:22 0.8 °F /  -17.3 °C -0.2 °F /  -17.9 °C 1018.5 in /  34486.4 hPa SSE 3.2 mph /  5.1 km/h 4.8 mph /  7.7 km/h 93 % 0.0 in /  0 mm
18:32 0.9 °F /  -17.3 °C -0.1 °F /  -17.8 °C 1018.2 in /  34476.3 hPa Calm   4.8 mph /  7.7 km/h 93 % 0.0 in /  0 mm
18:37 0.9 °F /  -17.3 °C -0.1 °F /  -17.8 °C 1018.2 in /  34476.3 hPa Calm   4.8 mph /  7.7 km/h 93 % 0.0 in /  0 mm
18:42 0.9 °F /  -17.3 °C -0.1 °F /  -17.8 °C 1018.2 in /  34476.3 hPa Calm   6.4 mph /  10.3 km/h 93 % 0.0 in /  0 mm
18:47 0.9 °F /  -17.3 °C -0.1 °F /  -17.8 °C 1018.2 in /  34476.3 hPa Calm   6.4 mph /  10.3 km/h 93 % 0.0 in /  0 mm
18:52 0.9 °F /  -17.3 °C -0.1 °F /  -17.8 °C 1017.8 in /  34462.7 hPa Calm   6.4 mph /  10.3 km/h 93 % 0.0 in /  0 mm
18:57 1.0 °F /  -17.2 °C 0.0 °F /  -17.8 °C 1017.8 in /  34462.7 hPa Calm   6.4 mph /  10.3 km/h 93 % 0.0 in /  0 mm
19:02 0.9 °F /  -17.3 °C -0.1 °F /  -17.8 °C 1017.8 in /  34462.7 hPa Calm   6.4 mph /  10.3 km/h 93 % 0.0 in /  0 mm
19:07 0.9 °F /  -17.3 °C -0.1 °F /  -17.8 °C 1017.8 in /  34462.7 hPa Calm   3.2 mph /  5.1 km/h 93 % 0.0 in /  0 mm
19:17 1.0 °F /  -17.2 °C 0.0 °F /  -17.8 °C 1017.8 in /  34462.7 hPa Calm   4.8 mph /  7.7 km/h 93 % 0.0 in /  0 mm
19:22 1.0 °F /  -17.2 °C 0.0 °F /  -17.8 °C 1017.8 in /  34462.7 hPa SSE 3.2 mph /  5.1 km/h 4.8 mph /  7.7 km/h 93 % 0.0 in /  0 mm
19:32 1.0 °F /  -17.2 °C 0.0 °F /  -17.8 °C 1017.5 in /  34452.6 hPa Calm   6.4 mph /  10.3 km/h 93 % 0.0 in /  0 mm
19:37 1.0 °F /  -17.2 °C 0.0 °F /  -17.8 °C 1017.5 in /  34452.6 hPa SSW 1.6 mph /  2.6 km/h 6.4 mph /  10.3 km/h 93 % 0.0 in /  0 mm
19:52 1.0 °F /  -17.2 °C 0.0 °F /  -17.8 °C 1017.5 in /  34452.6 hPa SW 3.2 mph /  5.1 km/h 6.4 mph /  10.3 km/h 93 % 0.0 in /  0 mm
19:57 1.0 °F /  -17.2 °C 0.0 °F /  -17.8 °C 1017.5 in /  34452.6 hPa SSE 1.6 mph /  2.6 km/h 8.0 mph /  12.9 km/h 93 % 0.0 in /  0 mm
20:17 0.9 °F /  -17.3 °C -0.1 °F /  -17.8 °C 1017.2 in /  34442.4 hPa Calm   6.4 mph /  10.3 km/h 93 % 0.0 in /  0 mm
20:27 0.9 °F /  -17.3 °C -0.1 °F /  -17.8 °C 1016.8 in /  34428.8 hPa Calm   4.8 mph /  7.7 km/h 93 % 0.0 in /  0 mm
20:32 0.8 °F /  -17.3 °C -0.1 °F /  -17.8 °C 1016.8 in /  34428.8 hPa Calm   4.8 mph /  7.7 km/h 94 % 0.0 in /  0 mm
20:42 0.8 °F /  -17.3 °C -0.1 °F /  -17.8 °C 1016.8 in /  34428.8 hPa Calm   3.2 mph /  5.1 km/h 94 % 0.0 in /  0 mm
20:47 0.8 °F /  -17.3 °C -0.1 °F /  -17.8 °C 1016.8 in /  34428.8 hPa SE 1.6 mph /  2.6 km/h 1.6 mph /  2.6 km/h 94 % 0.0 in /  0 mm
20:57 0.9 °F /  -17.3 °C 0.0 °F /  -17.8 °C 1016.5 in /  34418.7 hPa South 1.6 mph /  2.6 km/h 1.6 mph /  2.6 km/h 94 % 0.0 in /  0 mm
21:07 0.9 °F /  -17.3 °C 0.0 °F /  -17.8 °C 1016.1 in /  34405.1 hPa Calm   3.2 mph /  5.1 km/h 94 % 0.0 in /  0 mm
21:12 0.9 °F /  -17.3 °C 0.0 °F /  -17.8 °C 1016.1 in /  34405.1 hPa Calm   3.2 mph /  5.1 km/h 94 % 0.0 in /  0 mm
21:17 0.9 °F /  -17.3 °C 0.0 °F /  -17.8 °C 1016.1 in /  34405.1 hPa SSE 1.6 mph /  2.6 km/h 3.2 mph /  5.1 km/h 94 % 0.0 in /  0 mm
21:22 0.9 °F /  -17.3 °C 0.0 °F /  -17.8 °C 1016.1 in /  34405.1 hPa Calm   3.2 mph /  5.1 km/h 94 % 0.0 in /  0 mm
21:32 0.9 °F /  -17.3 °C 0.0 °F /  -17.8 °C 1016.1 in /  34405.1 hPa Calm   6.4 mph /  10.3 km/h 94 % 0.0 in /  0 mm
21:37 0.9 °F /  -17.3 °C 0.0 °F /  -17.8 °C 1016.1 in /  34405.1 hPa SSE 3.2 mph /  5.1 km/h 6.4 mph /  10.3 km/h 94 % 0.0 in /  0 mm
21:42 0.9 °F /  -17.3 °C -0.1 °F /  -17.8 °C 1015.8 in /  34395 hPa SSE 1.6 mph /  2.6 km/h 4.8 mph /  7.7 km/h 93 % 0.0 in /  0 mm
21:47 0.9 °F /  -17.3 °C -0.1 °F /  -17.8 °C 1015.8 in /  34395 hPa SSE 1.6 mph /  2.6 km/h 4.8 mph /  7.7 km/h 93 % 0.0 in /  0 mm
21:52 0.9 °F /  -17.3 °C -0.1 °F /  -17.8 °C 1015.8 in /  34395 hPa South 1.6 mph /  2.6 km/h 4.8 mph /  7.7 km/h 93 % 0.0 in /  0 mm
22:02 0.9 °F /  -17.3 °C 0.0 °F /  -17.8 °C 1015.5 in /  34384.8 hPa South 3.2 mph /  5.1 km/h 4.8 mph /  7.7 km/h 94 % 0.0 in /  0 mm
22:17 0.8 °F /  -17.3 °C -0.1 °F /  -17.8 °C 1015.1 in /  34371.3 hPa Calm   4.8 mph /  7.7 km/h 94 % 0.0 in /  0 mm
22:37 0.7 °F /  -17.4 °C -0.2 °F /  -17.9 °C 1014.8 in /  34361.1 hPa Calm   3.2 mph /  5.1 km/h 94 % 0.0 in /  0 mm
22:42 0.7 °F /  -17.4 °C -0.2 °F /  -17.9 °C 1014.8 in /  34361.1 hPa ESE 1.6 mph /  2.6 km/h 3.2 mph /  5.1 km/h 94 % 0.0 in /  0 mm
22:47 0.7 °F /  -17.4 °C -0.2 °F /  -17.9 °C 1014.4 in /  34347.6 hPa SE 1.6 mph /  2.6 km/h 4.8 mph /  7.7 km/h 94 % 0.0 in /  0 mm
22:52 0.7 °F /  -17.4 °C -0.2 °F /  -17.9 °C 1014.4 in /  34347.6 hPa Calm   4.8 mph /  7.7 km/h 94 % 0.0 in /  0 mm
22:57 0.6 °F /  -17.4 °C -0.3 °F /  -17.9 °C 1014.4 in /  34347.6 hPa Calm   3.2 mph /  5.1 km/h 94 % 0.0 in /  0 mm
23:02 0.6 °F /  -17.4 °C -0.3 °F /  -17.9 °C 1014.1 in /  34337.4 hPa Calm   3.2 mph /  5.1 km/h 94 % 0.0 in /  0 mm
23:17 0.4 °F /  -17.6 °C -0.5 °F /  -18.1 °C 1014.1 in /  34337.4 hPa Calm   1.6 mph /  2.6 km/h 94 % 0.0 in /  0 mm
23:22 0.4 °F /  -17.6 °C -0.5 °F /  -18.1 °C 1013.8 in /  34327.3 hPa Calm   1.6 mph /  2.6 km/h 94 % 0.0 in /  0 mm
23:32 0.4 °F /  -17.6 °C -0.5 °F /  -18.1 °C 1013.8 in /  34327.3 hPa Calm   3.2 mph /  5.1 km/h 94 % 0.0 in /  0 mm
23:37 0.4 °F /  -17.6 °C -0.5 °F /  -18.1 °C 1013.8 in /  34327.3 hPa Calm   3.2 mph /  5.1 km/h 94 % 0.0 in /  0 mm
23:42 0.5 °F /  -17.5 °C -0.4 °F /  -18 °C 1013.8 in /  34327.3 hPa Calm   1.6 mph /  2.6 km/h 94 % 0.0 in /  0 mm
23:47 0.5 °F /  -17.5 °C -0.4 °F /  -18 °C 1013.4 in /  34313.7 hPa SSW 1.6 mph /  2.6 km/h 1.6 mph /  2.6 km/h 94 % 0.0 in /  0 mm
23:57 0.6 °F /  -17.4 °C -0.3 °F /  -17.9 °C 1013.4 in /  34313.7 hPa Calm   3.2 mph /  5.1 km/h 94 % 0.0 in /  0 mm
Meteo18
Compliments of Weather Underground - 4 mb

Script developed by  Jim McMurry - jmcmurry@mwt.net Adapted for the template by  Wim van der Kuil - Leuven-Template.eu

You find our weather info also at:

European Weather Network

Weather Underground

Equipment we use:

Weather-station
Davis Vue

Weather-program
Meteobridge

Weather-server
Raspberry PI 2 B+

Provider
1 and 1

Davis Vue

Meteobridge

Raspberry PI 2 B+

1 and 1